createdAt,value
2018-12-02T08:49:57.392Z,-0.20
2018-12-02T08:52:28.318Z,0.00
2018-12-02T08:54:59.074Z,0.00
2018-12-02T08:57:29.204Z,0.00
2018-12-02T09:00:00.052Z,0.00
2018-12-02T09:02:30.074Z,0.00
2018-12-02T09:04:59.964Z,0.00
2018-12-02T09:07:29.239Z,0.20
2018-12-02T09:09:59.722Z,0.10
2018-12-02T09:12:39.794Z,0.10
2018-12-02T09:15:12.269Z,0.20
2018-12-02T09:17:45.903Z,0.40
2018-12-02T09:20:20.672Z,0.50
2018-12-02T09:22:53.329Z,0.50
2018-12-02T09:25:31.385Z,0.50
2018-12-02T09:28:09.301Z,0.80
2018-12-02T09:30:41.289Z,0.90
2018-12-02T09:33:13.310Z,1.00
2018-12-02T09:35:44.074Z,1.30
2018-12-02T09:38:14.139Z,1.40
2018-12-02T09:40:44.738Z,1.60
2018-12-02T09:43:15.726Z,1.50
2018-12-02T09:45:46.117Z,1.70
2018-12-02T09:48:17.367Z,1.70
2018-12-02T09:50:47.418Z,1.60
2018-12-02T09:53:17.732Z,1.50
2018-12-02T09:55:49.338Z,1.40
2018-12-02T09:58:25.193Z,1.30
2018-12-02T10:00:56.083Z,1.10
2018-12-02T10:03:26.075Z,1.10
2018-12-02T10:05:55.333Z,1.30
2018-12-02T10:08:24.289Z,1.20
2018-12-02T10:10:53.850Z,1.20
2018-12-02T10:13:24.614Z,1.00
2018-12-02T10:15:55.657Z,1.20
2018-12-02T10:18:26.889Z,1.50
2018-12-02T10:20:57.464Z,1.50
2018-12-02T10:23:27.362Z,1.80
2018-12-02T10:25:57.265Z,2.10
2018-12-02T10:28:28.701Z,2.20
2018-12-02T10:31:00.056Z,2.20
2018-12-02T10:33:29.947Z,2.10
2018-12-02T10:36:00.782Z,1.90
2018-12-02T10:38:32.137Z,1.90
2018-12-02T10:41:02.664Z,1.90
2018-12-02T10:43:32.543Z,2.00
2018-12-02T10:46:03.434Z,2.10
2018-12-02T10:48:33.334Z,2.10
2018-12-02T10:51:03.208Z,2.00
2018-12-02T10:53:33.007Z,2.00
2018-12-02T10:56:02.878Z,1.90
2018-12-02T10:58:35.786Z,2.00
2018-12-02T11:01:11.912Z,2.40
2018-12-02T11:03:41.494Z,2.70
2018-12-02T11:06:11.549Z,2.70
2018-12-02T11:08:41.409Z,2.50
2018-12-02T11:11:11.359Z,2.30
2018-12-02T11:13:41.225Z,2.10
2018-12-02T11:16:12.158Z,1.80
2018-12-02T11:18:42.851Z,1.90
2018-12-02T11:21:12.982Z,2.00
2018-12-02T11:23:43.636Z,1.90
2018-12-02T11:26:13.833Z,2.00
2018-12-02T11:28:44.593Z,2.00
2018-12-02T11:31:14.600Z,1.90
2018-12-02T11:33:44.394Z,1.70
2018-12-02T11:36:14.382Z,1.60
2018-12-02T11:38:44.208Z,1.70
2018-12-02T11:41:15.041Z,1.90
2018-12-02T11:43:45.069Z,1.90
2018-12-02T11:46:14.907Z,2.10
2018-12-02T11:48:46.130Z,1.90
2018-12-02T11:51:16.662Z,2.00
2018-12-02T11:53:46.664Z,1.80
2018-12-02T11:56:16.477Z,1.60
2018-12-02T11:58:46.356Z,1.60
2018-12-02T12:01:16.220Z,1.50
2018-12-02T12:03:46.107Z,1.50
2018-12-02T12:06:17.744Z,1.60
2018-12-02T12:08:47.930Z,1.60
2018-12-02T12:11:18.529Z,1.60
2018-12-02T12:13:48.688Z,1.60
2018-12-02T12:16:18.587Z,1.60
2018-12-02T12:18:49.402Z,1.50
2018-12-02T12:21:20.239Z,1.50
2018-12-02T12:23:50.973Z,1.40
2018-12-02T12:26:21.150Z,1.50
2018-12-02T12:28:51.752Z,1.50
2018-12-02T12:31:21.886Z,1.60
2018-12-02T12:33:52.793Z,1.70
2018-12-02T12:36:22.665Z,1.60
2018-12-02T12:38:52.539Z,1.50
2018-12-02T12:41:22.227Z,1.60
2018-12-02T12:43:52.286Z,1.70
2018-12-02T12:46:23.110Z,1.80
2018-12-02T12:48:53.089Z,1.90
2018-12-02T12:51:23.671Z,1.80
2018-12-02T12:53:53.862Z,1.80
2018-12-02T12:56:23.721Z,1.80
2018-12-02T12:58:52.766Z,1.90
2018-12-02T13:01:21.762Z,1.80
2018-12-02T13:03:50.678Z,1.90
2018-12-02T13:06:19.772Z,2.00
2018-12-02T13:08:50.050Z,2.00
2018-12-02T13:11:23.603Z,2.00
2018-12-02T13:15:49.356Z,1.90
2018-12-02T13:21:40.098Z,1.80
2018-12-02T13:27:44.390Z,1.70
2018-12-02T13:30:16.270Z,1.50
2018-12-02T13:35:56.291Z,1.50
2018-12-02T13:38:31.225Z,1.40
2018-12-02T13:41:12.600Z,1.30
2018-12-02T13:43:59.437Z,1.30
2018-12-02T13:46:37.740Z,1.20
2018-12-02T13:49:14.396Z,1.20
2018-12-02T13:51:56.661Z,1.20
2018-12-02T13:54:40.336Z,1.20
2018-12-02T13:57:26.671Z,1.20
2018-12-02T14:02:42.900Z,1.30
2018-12-02T14:05:30.679Z,1.20
2018-12-02T14:10:48.591Z,1.20
2018-12-02T14:13:28.911Z,1.10
2018-12-02T14:16:09.214Z,1.00
2018-12-02T14:18:54.828Z,1.00
2018-12-02T14:30:22.569Z,0.90
2018-12-02T14:32:56.098Z,0.90
2018-12-02T14:35:30.709Z,0.90
2018-12-02T14:38:06.504Z,0.90
2018-12-02T14:40:42.510Z,0.90
2018-12-02T15:41:07.846Z,0.90
2018-12-02T15:43:44.986Z,0.60
2018-12-02T15:53:54.509Z,0.60
2018-12-02T16:05:08.472Z,0.50
2018-12-02T16:07:42.015Z,0.60
2018-12-02T16:54:07.072Z,0.50
2018-12-02T16:56:39.074Z,0.40
2018-12-02T16:59:23.006Z,0.50
2018-12-02T17:01:57.953Z,0.50
2018-12-02T17:07:07.171Z,0.60
2018-12-02T17:09:37.139Z,0.60
2018-12-02T17:12:07.992Z,0.60
2018-12-02T17:14:38.856Z,0.60
2018-12-02T17:17:09.817Z,0.60
2018-12-02T17:19:40.425Z,0.50
2018-12-02T17:22:10.634Z,0.40
2018-12-02T17:24:41.863Z,0.30
2018-12-02T17:39:22.994Z,-0.10
2018-12-02T18:17:47.102Z,-0.20
2018-12-02T18:20:18.672Z,-0.20
2018-12-02T18:22:48.663Z,-0.20
2018-12-02T18:25:20.605Z,-0.20
